Time;durP1;ratioP1;P1;durP2;ratioP2;P2;SDS_P1;SDS_P2;PMS_P1;PMS_P2;Temp;Humidity;BMP_temperature;BMP_pressure;BME280_temperature;BME280_humidity;BME280_pressure;Samples;Min_cycle;Max_cycle;Signal;HPM_P1;HPM_P2
2022/01/01 00:01:11;;;;;;;38.37;18.10;;;;;;;12.75;87.37;101859.72;5114118;28;20205;-71
2022/01/01 00:03:38;;;;;;;32.53;18.40;;;;;;;12.77;87.25;101860.53;5095703;28;20189;-71
2022/01/01 00:06:07;;;;;;;39.00;17.63;;;;;;;12.74;87.28;101865.03;5113966;28;20292;-71
2022/01/01 00:08:33;;;;;;;20.97;14.93;;;;;;;12.80;86.88;101868.34;5114133;28;20189;-71
2022/01/01 00:11:00;;;;;;;15.53;13.30;;;;;;;12.79;86.99;101871.88;5114099;28;20173;-71
2022/01/01 00:13:46;;;;;;;23.60;12.97;;;;;;;12.69;87.25;101867.81;5114319;28;20223;-72
2022/01/01 00:16:14;;;;;;;15.17;12.23;;;;;;;12.70;87.33;101879.19;5113664;28;20287;-72
2022/01/01 00:18:40;;;;;;;20.83;12.07;;;;;;;12.72;87.12;101880.00;5113698;28;20599;-71
2022/01/01 00:21:07;;;;;;;12.03;10.83;;;;;;;12.64;87.40;101889.00;5113905;28;20212;-71
2022/01/01 00:23:34;;;;;;;16.90;11.67;;;;;;;12.72;87.25;101891.38;5113985;28;20185;-71
2022/01/01 00:26:00;;;;;;;13.37;10.77;;;;;;;12.70;87.29;101892.31;5113619;28;20201;-71
2022/01/01 00:28:27;;;;;;;17.43;11.57;;;;;;;12.61;87.60;101896.09;5114193;28;20254;-71
2022/01/01 00:30:53;;;;;;;19.73;12.27;;;;;;;12.67;87.37;101894.13;5113948;28;20625;-71
2022/01/01 00:33:20;;;;;;;19.17;12.43;;;;;;;12.69;87.09;101894.09;5113851;28;20708;-71
2022/01/01 00:35:46;;;;;;;16.17;11.43;;;;;;;12.75;86.92;101885.16;5113522;28;20617;-71
2022/01/01 00:38:12;;;;;;;21.20;11.70;;;;;;;12.65;87.32;101884.59;5114155;28;20539;-72
2022/01/01 00:40:39;;;;;;;17.77;11.57;;;;;;;12.72;87.25;101883.50;5113734;28;20185;-71
2022/01/01 00:43:05;;;;;;;14.00;11.57;;;;;;;12.74;87.08;101886.94;5113442;28;20193;-71
2022/01/01 00:45:32;;;;;;;15.27;11.53;;;;;;;12.73;87.19;101882.59;5113659;28;20209;-71
2022/01/01 00:47:59;;;;;;;16.03;12.30;;;;;;;12.65;87.48;101889.84;5113728;28;20246;-71
2022/01/01 00:50:25;;;;;;;15.77;11.57;;;;;;;12.65;87.59;101882.81;5113442;28;20189;-72
2022/01/01 00:52:52;;;;;;;21.10;11.87;;;;;;;12.66;87.60;101892.44;5113691;28;20184;-71
2022/01/01 00:55:19;;;;;;;21.93;12.10;;;;;;;12.69;87.51;101888.84;5113753;28;20212;-72
2022/01/01 00:57:47;;;;;;;16.13;12.10;;;;;;;12.62;87.67;101892.56;5113379;28;20181;-72
2022/01/01 01:00:13;;;;;;;19.10;11.30;;;;;;;12.65;87.54;101897.72;5113902;28;20205;-71
2022/01/01 01:02:40;;;;;;;15.73;11.93;;;;;;;12.68;87.29;101897.63;5113516;28;20678;-71
2022/01/01 01:05:07;;;;;;;13.57;10.57;;;;;;;12.65;87.41;101905.63;5113221;28;20241;-71
2022/01/01 01:07:34;;;;;;;20.27;10.87;;;;;;;12.64;87.67;101901.25;5115585;28;20242;-71
2022/01/01 01:10:01;;;;;;;18.87;10.53;;;;;;;12.65;87.64;101910.88;5117179;28;20187;-71
2022/01/01 01:12:37;;;;;;;14.50;9.53;;;;;;;12.59;87.89;101911.91;5099067;28;20185;-71
2022/01/01 01:15:04;;;;;;;18.23;10.30;;;;;;;12.63;87.56;101910.91;5117262;28;20208;-71
2022/01/01 01:17:31;;;;;;;15.83;10.23;;;;;;;12.66;87.81;101915.22;5117003;28;20193;-71
2022/01/01 01:19:58;;;;;;;16.43;9.47;;;;;;;12.60;87.97;101905.75;5098844;28;20197;-71
2022/01/01 01:22:26;;;;;;;10.40;9.20;;;;;;;12.66;87.85;101902.06;5117126;28;20211;-71
2022/01/01 01:24:53;;;;;;;17.53;9.97;;;;;;;12.62;88.01;101908.31;5117055;28;20192;-71
2022/01/01 01:27:20;;;;;;;11.83;9.93;;;;;;;12.67;87.78;101902.03;5117087;28;20181;-71
2022/01/01 01:29:47;;;;;;;20.33;10.47;;;;;;;12.74;87.78;101914.97;5116758;28;20196;-71
2022/01/01 01:32:13;;;;;;;21.80;9.10;;;;;;;12.78;87.78;101911.31;5116689;28;20582;-71
2022/01/01 01:34:40;;;;;;;18.80;9.33;;;;;;;12.77;87.73;101912.25;5098305;28;20215;-72
2022/01/01 01:37:06;;;;;;;11.37;10.10;;;;;;;12.70;87.63;101916.81;5116616;28;20651;-71
2022/01/01 01:39:33;;;;;;;16.63;9.20;;;;;;;12.66;88.17;101917.84;5116618;28;20551;-71
2022/01/01 01:41:59;;;;;;;16.40;10.57;;;;;;;12.69;88.13;101917.75;5116573;28;20201;-71
2022/01/01 01:44:30;;;;;;;23.80;10.57;;;;;;;12.67;88.26;101912.53;5116475;28;20185;-71
2022/01/01 01:46:59;;;;;;;24.53;11.27;;;;;;;12.75;87.93;101911.44;5116396;28;20274;-72
2022/01/01 01:49:26;;;;;;;16.67;9.90;;;;;;;12.71;88.17;101910.66;5116947;28;20584;-71
2022/01/01 01:51:53;;;;;;;16.27;10.43;;;;;;;12.71;88.21;101901.91;5116376;28;20653;-71
2022/01/01 01:54:20;;;;;;;16.90;10.13;;;;;;;12.65;88.49;101908.25;5098200;28;20577;-71
2022/01/01 01:56:47;;;;;;;14.80;9.97;;;;;;;12.65;88.69;101910.88;5116474;28;20247;-72
2022/01/01 01:59:15;;;;;;;16.77;10.90;;;;;;;12.75;88.30;101906.19;5116460;28;20253;-72
2022/01/01 02:01:41;;;;;;;15.07;10.80;;;;;;;12.69;88.37;101901.97;5116122;28;20209;-71
2022/01/01 02:04:09;;;;;;;17.27;10.43;;;;;;;12.70;88.58;101916.81;5116086;28;20234;-71
2022/01/01 02:06:36;;;;;;;28.43;11.33;;;;;;;12.77;88.07;101920.13;5116037;28;20205;-71
2022/01/01 02:09:02;;;;;;;31.13;10.30;;;;;;;12.70;88.58;101931.72;5116054;28;20658;-71
2022/01/01 02:11:29;;;;;;;16.70;9.70;;;;;;;12.70;88.44;101926.47;5115936;28;20647;-71
2022/01/01 02:18:53;;;;;;;14.57;10.10;;;;;;;12.71;88.00;101928.19;5115734;28;20276;-71
2022/01/01 02:21:21;;;;;;;21.73;10.83;;;;;;;12.63;88.56;101931.91;5115538;28;20193;-71
2022/01/01 02:23:56;;;;;;;21.07;10.27;;;;;;;12.65;88.39;101934.53;5097967;28;20196;-71
2022/01/01 02:26:29;;;;;;;16.57;10.53;;;;;;;12.67;88.33;101930.06;5116203;28;20215;-72
2022/01/01 02:28:56;;;;;;;15.83;10.13;;;;;;;12.69;88.09;101938.75;5115966;28;20616;-71
2022/01/01 02:31:23;;;;;;;12.90;10.57;;;;;;;12.74;87.97;101930.75;5115436;28;20230;-71
2022/01/01 02:33:49;;;;;;;18.20;9.97;;;;;;;12.77;87.64;101931.50;5115218;28;20196;-71
2022/01/01 02:36:28;;;;;;;21.13;9.97;;;;;;;12.66;88.11;101925.72;5115604;28;20205;-71
2022/01/01 02:38:55;;;;;;;17.00;9.90;;;;;;;12.73;87.49;101927.25;5080429;28;20187;-71
2022/01/01 02:41:21;;;;;;;17.70;10.27;;;;;;;12.81;87.30;101924.41;5115846;28;20185;-71
2022/01/01 02:43:48;;;;;;;11.93;9.10;;;;;;;12.77;87.30;101923.63;5115619;28;20180;-71
2022/01/01 02:46:14;;;;;;;28.97;11.10;;;;;;;12.78;87.41;101916.59;5115315;28;20213;-71
2022/01/01 02:48:44;;;;;;;22.17;10.67;;;;;;;12.79;87.27;101919.19;5115268;28;20674;-71
2022/01/01 02:51:10;;;;;;;17.53;10.07;;;;;;;12.84;87.01;101927.78;5115196;28;20190;-71
2022/01/01 02:53:40;;;;;;;12.73;10.17;;;;;;;12.76;87.24;101931.56;5096902;28;20196;-71
2022/01/01 02:56:07;;;;;;;17.53;10.07;;;;;;;12.74;87.34;101923.72;5115494;28;20205;-71
2022/01/01 02:58:33;;;;;;;21.70;9.73;;;;;;;12.81;87.06;101932.28;5096756;28;20197;-71
2022/01/01 03:01:00;;;;;;;13.27;10.00;;;;;;;12.79;87.08;101929.69;5096861;28;20185;-71
2022/01/01 03:03:26;;;;;;;15.07;11.13;;;;;;;12.79;86.87;101937.59;5096593;28;20580;-71
2022/01/01 03:05:53;;;;;;;25.00;11.07;;;;;;;12.79;86.87;101939.34;5096605;28;20221;-71
2022/01/01 03:08:19;;;;;;;14.17;10.07;;;;;;;12.78;86.99;101954.25;5115102;28;20181;-71
2022/01/01 03:10:47;;;;;;;17.63;10.10;;;;;;;12.82;86.59;101958.50;5114816;28;20185;-71
2022/01/01 03:13:13;;;;;;;15.77;9.13;;;;;;;12.81;86.58;101955.94;5114772;28;20188;-71
2022/01/01 03:15:40;;;;;;;18.63;10.70;;;;;;;12.84;86.28;101948.78;5096581;28;20205;-71
2022/01/01 03:18:07;;;;;;;18.90;10.73;;;;;;;12.83;86.37;101954.09;5114614;28;20724;-71
2022/01/01 03:20:33;;;;;;;20.00;10.93;;;;;;;12.87;86.47;101963.63;5114540;28;20193;-71
2022/01/01 03:23:00;;;;;;;18.47;9.33;;;;;;;12.81;86.55;101948.91;5114505;28;20201;-71
2022/01/01 03:25:26;;;;;;;16.47;9.97;;;;;;;12.82;86.67;101940.09;5114745;28;20211;-71
2022/01/01 03:27:53;;;;;;;14.30;10.90;;;;;;;12.80;86.62;101944.56;5114419;28;20647;-71
2022/01/01 03:30:19;;;;;;;12.90;10.10;;;;;;;12.82;86.47;101940.09;5114469;28;20182;-71
2022/01/01 03:32:46;;;;;;;15.27;10.40;;;;;;;12.78;86.91;101942.88;5114673;28;20186;-71
2022/01/01 03:35:12;;;;;;;30.40;11.80;;;;;;;12.74;87.10;101944.75;5114490;28;20709;-71
2022/01/01 03:37:39;;;;;;;17.83;11.13;;;;;;;12.73;86.98;101945.66;5114838;28;20185;-71
2022/01/01 03:40:06;;;;;;;15.20;10.37;;;;;;;12.78;86.43;101943.72;5114502;28;20189;-71
2022/01/01 03:42:33;;;;;;;19.07;10.93;;;;;;;12.79;86.68;101948.09;5114682;28;20209;-71
2022/01/01 03:44:59;;;;;;;12.40;9.63;;;;;;;12.84;86.35;101953.19;5114105;28;20205;-71
2022/01/01 03:47:26;;;;;;;15.07;10.23;;;;;;;12.77;86.70;101944.63;5114153;28;20208;-71
2022/01/01 03:49:52;;;;;;;18.50;10.63;;;;;;;12.87;86.34;101947.88;5114698;28;20189;-71
2022/01/01 03:52:19;;;;;;;21.33;11.13;;;;;;;12.81;86.43;101946.28;5114650;28;20181;-71
2022/01/01 03:54:45;;;;;;;15.40;10.27;;;;;;;12.78;86.68;101924.47;5114000;28;20560;-72
2022/01/01 03:57:12;;;;;;;23.73;10.87;;;;;;;12.77;86.72;101926.25;5114033;28;20246;-71
2022/01/01 03:59:38;;;;;;;12.17;10.30;;;;;;;12.80;86.31;101917.41;5114548;28;20516;-72
2022/01/01 04:02:05;;;;;;;28.37;10.43;;;;;;;12.82;86.36;101918.22;5113860;28;20205;-71
2022/01/01 04:04:31;;;;;;;15.60;10.63;;;;;;;12.79;86.37;101916.56;5113875;28;20181;-71
2022/01/01 04:06:58;;;;;;;12.43;10.17;;;;;;;12.77;86.33;101899.97;5113806;28;20205;-71
2022/01/01 04:09:24;;;;;;;10.60;9.70;;;;;;;12.82;86.09;101899.81;5113879;28;20189;-71
2022/01/01 04:11:51;;;;;;;15.93;9.43;;;;;;;12.83;86.19;101902.41;5113838;28;20193;-71
2022/01/01 04:14:18;;;;;;;18.70;8.57;;;;;;;12.80;86.42;101896.41;5113761;28;20181;-71
2022/01/01 04:16:47;;;;;;;17.60;9.17;;;;;;;12.85;86.00;101903.19;5113732;28;20209;-71
2022/01/01 04:19:14;;;;;;;20.33;9.23;;;;;;;12.76;86.03;101898.25;5113758;28;20189;-71
2022/01/01 04:21:40;;;;;;;10.17;8.13;;;;;;;12.81;86.05;101901.59;5113585;28;20597;-71
2022/01/01 04:24:07;;;;;;;11.60;8.60;;;;;;;12.79;86.24;101902.56;5095449;28;20197;-71
2022/01/01 04:26:33;;;;;;;15.23;8.17;;;;;;;12.84;85.97;101905.88;5113607;28;20262;-72
2022/01/01 04:29:00;;;;;;;10.43;8.40;;;;;;;12.81;86.39;101908.63;5113938;28;20598;-71
2022/01/01 04:31:26;;;;;;;13.87;8.93;;;;;;;12.81;86.54;101913.88;5113662;28;20173;-72
2022/01/01 04:33:53;;;;;;;15.63;9.90;;;;;;;12.85;86.16;101916.34;5113592;28;20192;-72
2022/01/01 04:36:21;;;;;;;17.50;11.20;;;;;;;12.86;85.99;101910.22;5113514;28;20209;-72
2022/01/01 04:38:47;;;;;;;15.97;11.60;;;;;;;12.83;86.23;101918.16;5113535;28;20185;-72
2022/01/01 04:41:16;;;;;;;11.97;10.93;;;;;;;12.74;86.35;101920.22;5113508;28;20189;-72
2022/01/01 04:43:48;;;;;;;16.70;11.53;;;;;;;12.75;86.56;101917.56;5117699;28;20197;-72
2022/01/01 04:46:15;;;;;;;17.33;11.53;;;;;;;12.71;86.28;101918.53;5117787;28;20217;-72
2022/01/01 04:48:42;;;;;;;12.63;11.33;;;;;;;12.79;86.15;101913.94;5117623;28;20185;-72
2022/01/01 04:51:10;;;;;;;17.03;10.40;;;;;;;12.79;85.79;101898.16;5117563;28;20594;-72
2022/01/01 04:53:43;;;;;;;13.13;11.10;;;;;;;12.78;85.79;101914.81;5117764;28;20189;-72
2022/01/01 04:56:10;;;;;;;10.50;9.53;;;;;;;12.77;85.59;101918.34;5117372;28;20212;-72
2022/01/01 04:58:36;;;;;;;15.10;9.73;;;;;;;12.74;85.73;101918.47;5117393;28;20189;-72
2022/01/01 05:01:03;;;;;;;14.57;10.60;;;;;;;12.79;85.51;101919.19;5099886;28;20182;-72
2022/01/01 05:03:30;;;;;;;11.00;9.87;;;;;;;12.85;85.36;101923.38;5117754;28;20201;-72
2022/01/01 05:05:57;;;;;;;14.83;10.93;;;;;;;12.87;84.96;101924.22;5117727;28;20205;-72
2022/01/01 05:08:23;;;;;;;14.67;9.87;;;;;;;12.93;84.56;101930.13;5117221;28;20651;-71
2022/01/01 05:10:50;;;;;;;19.80;10.20;;;;;;;12.94;84.29;101931.00;5117196;28;20181;-71
2022/01/01 05:13:19;;;;;;;14.63;10.23;;;;;;;12.93;83.93;101937.16;5117115;28;20269;-71
2022/01/01 05:15:45;;;;;;;17.43;9.40;;;;;;;12.86;84.20;101935.63;5117036;28;20579;-71
2022/01/01 05:18:13;;;;;;;20.63;10.07;;;;;;;12.80;84.43;101938.44;5117022;28;20185;-71
2022/01/01 05:20:39;;;;;;;8.97;7.90;;;;;;;12.78;84.18;101943.72;5116802;28;20246;-71
2022/01/01 05:23:05;;;;;;;10.73;8.80;;;;;;;12.75;84.28;101948.22;5117390;28;20213;-71
2022/01/01 05:25:32;;;;;;;9.37;8.17;;;;;;;12.72;84.14;101956.22;5117069;28;20197;-71
2022/01/01 05:27:59;;;;;;;10.10;7.73;;;;;;;12.67;84.59;101956.34;5116841;28;20185;-71
2022/01/01 05:30:25;;;;;;;17.40;9.40;;;;;;;12.78;84.39;101959.50;5116835;28;20197;-71
2022/01/01 05:32:52;;;;;;;13.43;8.87;;;;;;;12.81;84.46;101963.81;5116743;28;20189;-71
2022/01/01 05:35:18;;;;;;;15.90;8.60;;;;;;;12.77;84.45;101964.81;5116650;28;20215;-71
2022/01/01 05:37:44;;;;;;;10.53;8.90;;;;;;;12.74;84.74;101963.13;5116725;28;20234;-71
2022/01/01 05:40:14;;;;;;;8.93;8.20;;;;;;;12.75;84.69;101969.25;5116917;28;20524;-71
2022/01/01 05:42:41;;;;;;;18.43;10.00;;;;;;;12.72;84.60;101962.34;5117120;28;20205;-71
2022/01/01 05:45:08;;;;;;;15.60;8.70;;;;;;;12.79;84.62;101961.25;5116488;28;20205;-72
2022/01/01 05:47:34;;;;;;;8.20;7.57;;;;;;;12.84;84.75;101953.19;5116482;28;20197;-72
2022/01/01 05:50:01;;;;;;;11.63;7.40;;;;;;;12.78;84.88;101950.75;5116728;28;20203;-72
2022/01/01 05:52:27;;;;;;;17.03;8.47;;;;;;;12.82;84.69;101958.50;5115922;28;20654;-72
2022/01/01 05:54:54;;;;;;;18.47;8.97;;;;;;;12.83;84.52;101952.34;5116300;28;20185;-72
2022/01/01 05:57:21;;;;;;;12.67;8.27;;;;;;;12.92;84.06;101946.78;5116561;28;20268;-72
2022/01/01 05:59:47;;;;;;;8.70;7.73;;;;;;;12.81;84.63;101954.16;5097977;28;20189;-72
2022/01/01 06:02:14;;;;;;;10.67;7.50;;;;;;;12.94;83.81;101958.13;5116121;28;20189;-71
2022/01/01 06:04:40;;;;;;;14.10;8.23;;;;;;;12.93;83.96;101960.81;5116610;28;20224;-72
2022/01/01 06:07:07;;;;;;;13.67;7.77;;;;;;;12.88;84.00;101966.22;5116630;28;20688;-71
2022/01/01 06:09:34;;;;;;;12.23;7.80;;;;;;;12.88;83.98;101958.31;5116058;28;20238;-71
2022/01/01 06:12:00;;;;;;;14.63;8.27;;;;;;;12.84;84.03;101955.81;5098226;28;20197;-71
2022/01/01 06:14:27;;;;;;;8.47;7.33;;;;;;;12.77;84.50;101959.56;5115970;28;20185;-71
2022/01/01 06:16:54;;;;;;;8.97;8.30;;;;;;;12.78;84.72;101954.25;5116115;28;20678;-72
2022/01/01 06:19:21;;;;;;;6.40;6.03;;;;;;;12.79;84.62;101945.47;5116201;28;20189;-72
2022/01/01 06:21:48;;;;;;;8.13;7.40;;;;;;;12.85;84.23;101947.88;5115723;28;20704;-72
2022/01/01 06:24:14;;;;;;;11.30;7.80;;;;;;;12.80;84.00;101946.34;5115993;28;20205;-72
2022/01/01 06:26:41;;;;;;;9.50;7.67;;;;;;;12.80;83.91;101962.97;5115668;28;20258;-72
2022/01/01 06:29:07;;;;;;;8.47;7.63;;;;;;;12.77;83.91;101952.53;5116189;28;20193;-72
2022/01/01 06:31:34;;;;;;;7.77;7.20;;;;;;;12.80;83.58;101964.72;5097534;28;20185;-72
2022/01/01 06:34:00;;;;;;;12.57;7.80;;;;;;;12.79;83.51;101968.28;5115867;28;20189;-71
2022/01/01 06:36:27;;;;;;;7.13;6.40;;;;;;;12.87;83.41;101967.13;5115453;28;20205;-72
2022/01/01 06:38:53;;;;;;;10.70;8.60;;;;;;;12.79;83.58;101963.88;5115700;28;20185;-72
2022/01/01 06:41:20;;;;;;;7.83;7.17;;;;;;;12.81;83.55;101962.03;5097948;28;20185;-72
2022/01/01 06:43:47;;;;;;;8.17;6.37;;;;;;;12.86;83.29;101970.66;5115303;28;20204;-72
2022/01/01 06:46:13;;;;;;;8.20;6.33;;;;;;;12.89;82.96;101962.66;5115525;28;20204;-72
2022/01/01 06:48:40;;;;;;;9.73;6.80;;;;;;;12.87;83.04;101976.78;5115273;28;20185;-72
2022/01/01 06:51:06;;;;;;;10.03;7.27;;;;;;;12.81;83.10;101976.97;5115512;28;20193;-72
2022/01/01 06:53:33;;;;;;;6.33;5.87;;;;;;;12.89;82.66;101973.19;5115489;28;20521;-72
2022/01/01 06:56:05;;;;;;;5.90;5.60;;;;;;;12.90;82.53;101985.41;5115211;28;20213;-72
2022/01/01 06:58:36;;;;;;;7.23;6.53;;;;;;;12.93;82.27;101982.72;5115678;28;20188;-72
2022/01/01 07:01:03;;;;;;;9.63;6.03;;;;;;;12.84;82.78;101985.59;5115341;28;20567;-72
2022/01/01 07:03:31;;;;;;;8.63;6.53;;;;;;;12.86;82.60;101975.06;5115178;28;20223;-72
2022/01/01 07:05:57;;;;;;;6.03;5.63;;;;;;;12.85;82.81;101961.03;5114188;28;20254;-72
2022/01/01 07:08:24;;;;;;;12.37;5.00;;;;;;;12.85;82.63;101962.78;5115472;28;20173;-72
2022/01/01 07:10:50;;;;;;;5.17;4.70;;;;;;;12.83;82.16;101957.59;5114870;28;20173;-72
2022/01/01 07:13:17;;;;;;;6.13;5.50;;;;;;;12.82;82.43;101961.13;5114815;28;20173;-72
2022/01/01 07:15:43;;;;;;;9.73;6.00;;;;;;;12.91;81.74;101968.72;5115014;28;20254;-72
2022/01/01 07:18:10;;;;;;;13.77;6.30;;;;;;;12.81;81.95;101977.81;5115009;28;20177;-72
2022/01/01 07:20:36;;;;;;;8.10;5.37;;;;;;;12.82;82.71;101986.56;5114830;28;20208;-72
2022/01/01 07:23:03;;;;;;;6.17;5.70;;;;;;;12.80;82.57;101986.63;5115069;28;20230;-72
2022/01/01 07:25:30;;;;;;;11.13;5.50;;;;;;;12.82;82.43;101991.81;5096516;28;20216;-72
2022/01/01 07:27:56;;;;;;;5.97;5.20;;;;;;;12.85;82.47;101983.81;5114782;28;20186;-72
2022/01/01 07:30:23;;;;;;;7.73;5.07;;;;;;;12.87;82.46;101993.41;5114812;28;20169;-72
2022/01/01 07:32:49;;;;;;;5.57;5.00;;;;;;;12.82;82.76;101989.19;5114458;28;20185;-72
2022/01/01 07:35:18;;;;;;;6.10;5.63;;;;;;;12.75;82.74;101988.50;5114328;28;20235;-72
2022/01/01 07:37:46;;;;;;;5.10;4.63;;;;;;;12.78;82.70;101990.19;5114374;28;20254;-72
2022/01/01 07:40:14;;;;;;;5.10;4.53;;;;;;;12.91;82.23;101992.38;5114573;28;20189;-72
2022/01/01 07:42:44;;;;;;;5.50;5.13;;;;;;;12.87;82.15;101997.81;5114499;28;20615;-72
2022/01/01 07:45:12;;;;;;;5.07;4.77;;;;;;;12.83;82.08;101998.78;5114103;28;20201;-72
2022/01/01 07:47:39;;;;;;;7.40;4.67;;;;;;;12.89;81.98;102004.72;5114409;28;20181;-72
2022/01/01 07:50:07;;;;;;;4.70;4.37;;;;;;;12.81;82.13;102014.63;5114433;28;20193;-72
2022/01/01 07:52:33;;;;;;;4.93;4.57;;;;;;;12.91;81.94;102013.41;5096054;28;20595;-71
2022/01/01 07:55:00;;;;;;;5.93;5.37;;;;;;;12.84;82.04;102017.13;5113951;28;20209;-72
2022/01/01 07:57:28;;;;;;;5.90;5.40;;;;;;;12.94;81.77;102009.84;5114183;28;20185;-72
2022/01/01 07:59:54;;;;;;;5.70;5.40;;;;;;;12.85;81.93;102010.97;5095754;28;20181;-72
2022/01/01 08:02:21;;;;;;;5.33;4.43;;;;;;;12.82;81.44;102008.44;5114024;28;20528;-71
2022/01/01 08:04:47;;;;;;;7.03;4.70;;;;;;;12.83;81.38;102015.44;5113777;28;20705;-72
2022/01/01 08:07:14;;;;;;;5.70;5.20;;;;;;;12.89;81.38;102012.63;5113912;28;20731;-72
2022/01/01 08:10:00;;;;;;;5.10;4.80;;;;;;;12.84;80.99;102014.50;5113702;28;20220;-72
2022/01/01 08:12:27;;;;;;;8.27;4.57;;;;;;;12.88;81.13;102004.78;5114419;28;20292;-72
2022/01/01 08:14:56;;;;;;;4.10;3.70;;;;;;;12.88;81.44;102008.28;5114244;28;20185;-72
2022/01/01 08:17:24;;;;;;;3.73;3.63;;;;;;;12.94;81.29;102020.38;5113614;28;20188;-72
2022/01/01 08:19:51;;;;;;;6.73;4.53;;;;;;;12.98;81.06;102007.97;5113793;28;20181;-72
2022/01/01 08:22:17;;;;;;;3.90;3.63;;;;;;;13.06;81.04;102019.13;5114322;28;20562;-72
2022/01/01 08:24:45;;;;;;;3.63;3.53;;;;;;;13.12;80.61;102022.44;5113806;28;20211;-72
2022/01/01 08:27:12;;;;;;;6.03;3.60;;;;;;;13.10;80.76;102021.63;5113668;28;20192;-72
2022/01/01 08:29:38;;;;;;;6.43;4.27;;;;;;;13.11;80.60;102033.00;5113634;28;20189;-72
2022/01/01 08:32:05;;;;;;;4.93;3.50;;;;;;;13.12;80.56;102025.06;5113911;28;20185;-72
2022/01/01 08:34:32;;;;;;;3.57;3.33;;;;;;;13.03;81.07;102033.22;5113644;28;20587;-72
2022/01/01 08:36:58;;;;;;;4.43;4.23;;;;;;;13.19;80.11;102031.00;5113517;28;20614;-72
2022/01/01 08:39:25;;;;;;;4.10;3.97;;;;;;;13.28;79.84;102033.34;5114101;28;20301;-72
2022/01/01 08:41:51;;;;;;;4.70;4.33;;;;;;;13.27;79.66;102031.63;5113593;28;20211;-72
2022/01/01 08:44:18;;;;;;;4.17;3.90;;;;;;;13.09;79.93;102040.94;5095724;28;20594;-72
2022/01/01 08:46:44;;;;;;;4.57;4.23;;;;;;;13.17;79.82;102041.56;5114011;28;20213;-72
2022/01/01 08:49:12;;;;;;;3.87;3.53;;;;;;;13.03;79.98;102045.53;5113468;28;20211;-71
2022/01/01 08:51:42;;;;;;;4.80;3.70;;;;;;;12.97;80.25;102035.19;5114002;28;20189;-71
2022/01/01 08:54:11;;;;;;;6.20;3.50;;;;;;;12.97;79.76;102035.19;5113481;28;20513;-71
2022/01/01 08:56:38;;;;;;;3.60;3.30;;;;;;;13.08;79.47;102033.09;5095429;28;20213;-72
2022/01/01 08:59:05;;;;;;;3.77;3.10;;;;;;;13.07;79.52;102026.09;5113720;28;20243;-72
2022/01/01 09:01:31;;;;;;;8.20;4.00;;;;;;;12.97;79.85;102036.03;5113313;28;20194;-72
2022/01/01 09:03:58;;;;;;;3.83;3.67;;;;;;;13.10;79.55;102031.28;5113257;28;20208;-72
2022/01/01 09:06:25;;;;;;;4.83;3.90;;;;;;;13.07;79.54;102029.59;5113597;28;20226;-73
2022/01/01 09:08:52;;;;;;;4.60;3.73;;;;;;;13.19;79.27;102033.63;5113348;28;20177;-72
2022/01/01 09:11:18;;;;;;;5.27;4.43;;;;;;;13.28;78.86;102025.47;5113762;28;20190;-72
2022/01/01 09:13:45;;;;;;;4.00;3.90;;;;;;;13.25;78.95;102030.84;5114148;28;20215;-73
2022/01/01 09:16:14;;;;;;;3.30;3.20;;;;;;;13.33;78.24;102033.22;5113164;28;20214;-73
2022/01/01 09:18:42;;;;;;;7.03;4.33;;;;;;;13.34;77.98;102030.53;5113101;28;20189;-72
2022/01/01 09:21:09;;;;;;;3.17;3.07;;;;;;;13.37;78.41;102025.19;5113175;28;20542;-73
2022/01/01 09:23:36;;;;;;;3.97;3.87;;;;;;;13.42;77.65;102025.88;5113657;28;20205;-72
2022/01/01 09:26:03;;;;;;;4.80;4.37;;;;;;;13.41;77.86;102026.81;5094851;28;20708;-73
2022/01/01 09:28:32;;;;;;;3.20;3.20;;;;;;;13.38;77.70;102023.41;5114730;28;20271;-72
2022/01/01 09:31:00;;;;;;;7.57;3.63;;;;;;;13.44;77.26;102029.34;5116843;28;20530;-72
2022/01/01 09:33:29;;;;;;;3.37;3.37;;;;;;;13.41;78.02;102033.84;5116711;28;20258;-72
2022/01/01 09:35:57;;;;;;;3.27;3.17;;;;;;;13.50;78.05;102030.91;5116611;28;20212;-73
2022/01/01 09:38:24;;;;;;;4.00;3.30;;;;;;;13.55;77.32;102030.75;5116540;28;20192;-72
2022/01/01 09:40:54;;;;;;;5.60;2.70;;;;;;;13.45;77.03;102033.69;5098745;28;20193;-72
2022/01/01 09:43:22;;;;;;;7.63;4.47;;;;;;;13.38;77.00;102031.31;5116805;28;20169;-72
2022/01/01 09:45:50;;;;;;;5.87;3.83;;;;;;;13.34;77.35;102035.78;5116470;28;20216;-73
2022/01/01 09:48:21;;;;;;;5.03;2.93;;;;;;;13.28;77.46;102035.97;5116708;28;20223;-72
2022/01/01 09:50:49;;;;;;;3.07;2.70;;;;;;;13.46;76.70;102037.19;5116465;28;20182;-72
2022/01/01 09:53:17;;;;;;;2.97;2.80;;;;;;;13.55;76.41;102038.66;5098921;28;20169;-73
2022/01/01 09:55:44;;;;;;;2.93;2.73;;;;;;;13.47;76.95;102036.28;5116228;28;20212;-73
2022/01/01 09:58:11;;;;;;;3.07;2.97;;;;;;;13.54;76.79;102039.56;5116282;28;20185;-73
2022/01/01 10:00:37;;;;;;;7.63;3.10;;;;;;;13.46;76.45;102030.16;5116539;28;20566;-72
2022/01/01 10:03:04;;;;;;;2.93;2.50;;;;;;;13.55;76.30;102036.03;5116190;28;20267;-72
2022/01/01 10:05:31;;;;;;;4.03;3.60;;;;;;;13.53;76.33;102025.56;5116308;28;20217;-72
2022/01/01 10:08:01;;;;;;;3.13;2.93;;;;;;;13.49;76.75;102031.81;5116392;28;20193;-72
2022/01/01 10:10:28;;;;;;;2.83;2.63;;;;;;;13.56;76.64;102038.59;5097762;28;20193;-72
2022/01/01 10:12:55;;;;;;;3.60;3.40;;;;;;;13.61;76.81;102041.94;5116321;28;20193;-72
2022/01/01 10:15:21;;;;;;;4.43;3.43;;;;;;;13.58;76.40;102023.63;5116288;28;20204;-73
2022/01/01 10:17:48;;;;;;;3.70;3.60;;;;;;;13.59;76.51;102033.25;5115864;28;20686;-73
2022/01/01 10:20:15;;;;;;;3.77;3.57;;;;;;;13.60;76.58;102026.22;5097696;28;20662;-72
2022/01/01 10:22:49;;;;;;;2.60;2.60;;;;;;;13.63;76.07;102026.97;5116134;28;20189;-72
2022/01/01 10:28:04;;;;;;;3.80;2.70;;;;;;;13.73;76.58;102023.13;5115759;28;20623;-73
2022/01/01 10:30:36;;;;;;;2.60;2.57;;;;;;;13.82;75.43;102016.69;5115665;28;20185;-72
2022/01/01 10:33:14;;;;;;;3.47;3.03;;;;;;;13.90;75.66;102016.44;5097351;28;20219;-73
2022/01/01 10:35:53;;;;;;;2.97;2.87;;;;;;;13.88;75.71;102015.63;5116288;28;20205;-73
2022/01/01 10:38:23;;;;;;;2.97;2.70;;;;;;;13.91;75.24;102019.00;5116117;28;20174;-72
2022/01/01 10:41:05;;;;;;;2.67;2.43;;;;;;;14.05;74.74;102010.63;5115481;28;20232;-72
2022/01/01 10:43:40;;;;;;;2.33;2.23;;;;;;;14.05;74.99;102008.84;5115609;28;20177;-72
2022/01/01 10:46:10;;;;;;;2.67;2.57;;;;;;;14.04;74.38;102011.53;5115269;28;20618;-73
2022/01/01 10:51:08;;;;;;;7.93;3.47;;;;;;;14.02;75.20;102013.38;5097030;28;20192;-72
2022/01/01 10:53:36;;;;;;;3.37;3.20;;;;;;;14.13;74.76;102010.34;5115790;28;20177;-73
2022/01/01 10:56:22;;;;;;;3.60;3.20;;;;;;;14.01;74.38;101998.50;5115570;28;20266;-72
2022/01/01 10:59:03;;;;;;;4.23;2.77;;;;;;;14.05;74.41;101987.78;5115138;28;20196;-72
2022/01/01 11:01:32;;;;;;;4.33;3.43;;;;;;;14.14;74.22;101985.72;5115659;28;20177;-72
2022/01/01 11:04:01;;;;;;;3.73;3.60;;;;;;;14.19;73.80;101968.84;5096656;28;20217;-72
2022/01/01 11:06:32;;;;;;;3.63;3.43;;;;;;;14.27;74.37;101974.69;5114917;28;20626;-73
2022/01/01 11:08:59;;;;;;;2.83;2.63;;;;;;;14.35;73.98;101963.88;5115229;28;20509;-73
2022/01/01 11:11:26;;;;;;;2.93;2.93;;;;;;;14.24;73.66;101972.19;5097039;28;20266;-72
2022/01/01 11:13:53;;;;;;;4.60;2.40;;;;;;;14.31;73.99;101962.28;5115386;28;20583;-72
2022/01/01 11:16:21;;;;;;;3.37;3.27;;;;;;;14.37;74.43;101962.06;5096691;28;20213;-73
2022/01/01 11:18:48;;;;;;;2.27;2.17;;;;;;;14.49;73.48;101966.03;5114754;28;20185;-73
2022/01/01 11:21:15;;;;;;;2.60;2.57;;;;;;;14.53;73.38;101952.69;5114657;28;20188;-73
2022/01/01 11:23:42;;;;;;;3.70;3.10;;;;;;;14.62;73.48;101947.97;5114856;28;20548;-73
2022/01/01 11:26:08;;;;;;;2.13;2.13;;;;;;;14.60;72.99;101942.78;5114527;28;20209;-73
2022/01/01 11:28:36;;;;;;;5.50;2.57;;;;;;;14.54;73.37;101938.59;5114584;28;20197;-73
2022/01/01 11:31:07;;;;;;;5.20;3.07;;;;;;;14.70;72.87;101935.34;5114515;28;20185;-73